sensor_id;sensor_type;location;lat;lon;timestamp;temperature;humidity
25568;DHT22;13455;51.480;7.594;2023-11-21T00:00:16;7.80;99.90
25568;DHT22;13455;51.480;7.594;2023-11-21T00:02:43;7.90;99.90
25568;DHT22;13455;51.480;7.594;2023-11-21T00:05:10;7.90;99.90
25568;DHT22;13455;51.480;7.594;2023-11-21T00:07:37;7.90;99.90
25568;DHT22;13455;51.480;7.594;2023-11-21T00:10:03;8.20;99.90
25568;DHT22;13455;51.480;7.594;2023-11-21T00:12:30;7.90;99.90
25568;DHT22;13455;51.480;7.594;2023-11-21T00:14:56;8.10;99.90
25568;DHT22;13455;51.480;7.594;2023-11-21T00:17:22;8.10;99.90
25568;DHT22;13455;51.480;7.594;2023-11-21T00:19:48;8.10;99.90
25568;DHT22;13455;51.480;7.594;2023-11-21T00:22:13;8.60;99.90
25568;DHT22;13455;51.480;7.594;2023-11-21T00:24:39;8.10;99.90
25568;DHT22;13455;51.480;7.594;2023-11-21T00:27:05;8.20;99.90
25568;DHT22;13455;51.480;7.594;2023-11-21T00:29:31;8.20;99.90
25568;DHT22;13455;51.480;7.594;2023-11-21T00:31:57;8.30;99.90
25568;DHT22;13455;51.480;7.594;2023-11-21T00:34:22;8.10;99.90
25568;DHT22;13455;51.480;7.594;2023-11-21T00:36:48;8.30;99.90
25568;DHT22;13455;51.480;7.594;2023-11-21T00:39:13;8.10;99.90
25568;DHT22;13455;51.480;7.594;2023-11-21T00:41:39;8.40;99.90
25568;DHT22;13455;51.480;7.594;2023-11-21T00:44:05;8.10;99.90
25568;DHT22;13455;51.480;7.594;2023-11-21T00:46:32;8.00;99.90
25568;DHT22;13455;51.480;7.594;2023-11-21T00:48:57;8.20;99.90
25568;DHT22;13455;51.480;7.594;2023-11-21T00:51:23;8.20;99.90
25568;DHT22;13455;51.480;7.594;2023-11-21T00:53:49;8.50;99.90
25568;DHT22;13455;51.480;7.594;2023-11-21T00:56:15;8.10;99.90
25568;DHT22;13455;51.480;7.594;2023-11-21T00:58:41;8.20;99.90
25568;DHT22;13455;51.480;7.594;2023-11-21T01:01:09;8.20;99.90
25568;DHT22;13455;51.480;7.594;2023-11-21T01:03:35;8.10;99.90
25568;DHT22;13455;51.480;7.594;2023-11-21T01:06:01;8.30;99.90
25568;DHT22;13455;51.480;7.594;2023-11-21T01:08:26;8.30;99.90
25568;DHT22;13455;51.480;7.594;2023-11-21T01:10:52;8.40;99.90
25568;DHT22;13455;51.480;7.594;2023-11-21T01:13:18;8.30;99.90
25568;DHT22;13455;51.480;7.594;2023-11-21T01:15:43;8.80;99.90
25568;DHT22;13455;51.480;7.594;2023-11-21T01:18:09;8.40;99.90
25568;DHT22;13455;51.480;7.594;2023-11-21T01:20:35;8.30;99.90
25568;DHT22;13455;51.480;7.594;2023-11-21T01:23:00;8.60;99.90
25568;DHT22;13455;51.480;7.594;2023-11-21T01:25:26;8.70;99.90
25568;DHT22;13455;51.480;7.594;2023-11-21T01:27:51;8.40;99.90
25568;DHT22;13455;51.480;7.594;2023-11-21T01:30:18;8.50;99.90
25568;DHT22;13455;51.480;7.594;2023-11-21T01:32:44;8.40;99.90
25568;DHT22;13455;51.480;7.594;2023-11-21T01:35:10;8.40;99.90
25568;DHT22;13455;51.480;7.594;2023-11-21T01:37:37;8.40;99.90
25568;DHT22;13455;51.480;7.594;2023-11-21T01:40:03;8.70;99.90
25568;DHT22;13455;51.480;7.594;2023-11-21T01:42:31;8.50;99.90
25568;DHT22;13455;51.480;7.594;2023-11-21T01:44:57;8.70;99.90
25568;DHT22;13455;51.480;7.594;2023-11-21T01:47:22;8.70;99.90
25568;DHT22;13455;51.480;7.594;2023-11-21T01:49:48;8.60;99.90
25568;DHT22;13455;51.480;7.594;2023-11-21T01:52:13;8.50;99.90
25568;DHT22;13455;51.480;7.594;2023-11-21T01:54:41;8.40;99.90
25568;DHT22;13455;51.480;7.594;2023-11-21T01:57:07;8.40;99.90
25568;DHT22;13455;51.480;7.594;2023-11-21T01:59:37;8.40;99.90
25568;DHT22;13455;51.480;7.594;2023-11-21T02:02:04;8.50;99.90
25568;DHT22;13455;51.480;7.594;2023-11-21T02:04:33;8.40;99.90
25568;DHT22;13455;51.480;7.594;2023-11-21T02:06:59;8.40;99.90
25568;DHT22;13455;51.480;7.594;2023-11-21T02:09:27;8.30;99.90
25568;DHT22;13455;51.480;7.594;2023-11-21T02:11:53;8.30;99.90
25568;DHT22;13455;51.480;7.594;2023-11-21T02:14:19;8.40;99.90
25568;DHT22;13455;51.480;7.594;2023-11-21T02:16:51;8.30;99.90
25568;DHT22;13455;51.480;7.594;2023-11-21T02:19:21;8.40;99.90
25568;DHT22;13455;51.480;7.594;2023-11-21T02:21:54;8.40;99.90
25568;DHT22;13455;51.480;7.594;2023-11-21T02:24:21;8.40;99.90
25568;DHT22;13455;51.480;7.594;2023-11-21T02:26:48;8.30;99.90
25568;DHT22;13455;51.480;7.594;2023-11-21T02:29:14;8.40;99.90
25568;DHT22;13455;51.480;7.594;2023-11-21T02:31:42;8.20;99.90
25568;DHT22;13455;51.480;7.594;2023-11-21T02:34:16;8.50;99.90
25568;DHT22;13455;51.480;7.594;2023-11-21T02:36:44;8.50;99.90
25568;DHT22;13455;51.480;7.594;2023-11-21T02:39:10;8.40;99.90
25568;DHT22;13455;51.480;7.594;2023-11-21T02:41:39;8.40;99.90
25568;DHT22;13455;51.480;7.594;2023-11-21T02:44:06;8.30;99.90
25568;DHT22;13455;51.480;7.594;2023-11-21T02:46:36;8.20;99.90
25568;DHT22;13455;51.480;7.594;2023-11-21T02:49:03;8.30;99.90
25568;DHT22;13455;51.480;7.594;2023-11-21T02:51:29;8.50;99.90
25568;DHT22;13455;51.480;7.594;2023-11-21T02:53:55;8.20;99.90
25568;DHT22;13455;51.480;7.594;2023-11-21T02:56:25;8.30;99.90
25568;DHT22;13455;51.480;7.594;2023-11-21T02:58:51;8.30;99.90
25568;DHT22;13455;51.480;7.594;2023-11-21T03:01:17;8.20;99.90
25568;DHT22;13455;51.480;7.594;2023-11-21T03:03:43;8.40;99.90
25568;DHT22;13455;51.480;7.594;2023-11-21T03:06:08;8.20;99.90
25568;DHT22;13455;51.480;7.594;2023-11-21T03:08:34;8.20;99.90
25568;DHT22;13455;51.480;7.594;2023-11-21T03:11:01;8.20;99.90
25568;DHT22;13455;51.480;7.594;2023-11-21T03:13:28;8.10;99.90
25568;DHT22;13455;51.480;7.594;2023-11-21T03:15:53;8.10;99.90
25568;DHT22;13455;51.480;7.594;2023-11-21T03:18:19;8.50;99.90
25568;DHT22;13455;51.480;7.594;2023-11-21T03:20:47;8.10;99.90
25568;DHT22;13455;51.480;7.594;2023-11-21T03:23:13;8.20;99.90
25568;DHT22;13455;51.480;7.594;2023-11-21T03:25:38;8.20;99.90
25568;DHT22;13455;51.480;7.594;2023-11-21T03:28:04;8.20;99.90
25568;DHT22;13455;51.480;7.594;2023-11-21T03:30:30;8.20;99.90
25568;DHT22;13455;51.480;7.594;2023-11-21T03:32:55;8.20;99.90
25568;DHT22;13455;51.480;7.594;2023-11-21T03:35:22;8.70;99.90
25568;DHT22;13455;51.480;7.594;2023-11-21T03:37:47;8.20;99.90
25568;DHT22;13455;51.480;7.594;2023-11-21T03:40:13;8.20;99.90
25568;DHT22;13455;51.480;7.594;2023-11-21T03:42:39;8.20;99.90
25568;DHT22;13455;51.480;7.594;2023-11-21T03:45:06;8.20;99.90
25568;DHT22;13455;51.480;7.594;2023-11-21T03:47:31;8.20;99.90
25568;DHT22;13455;51.480;7.594;2023-11-21T03:49:57;8.40;99.90
25568;DHT22;13455;51.480;7.594;2023-11-21T03:52:24;8.40;99.90
25568;DHT22;13455;51.480;7.594;2023-11-21T03:54:50;8.30;99.90
25568;DHT22;13455;51.480;7.594;2023-11-21T03:57:16;8.40;99.90
25568;DHT22;13455;51.480;7.594;2023-11-21T03:59:42;8.30;99.90
25568;DHT22;13455;51.480;7.594;2023-11-21T04:02:08;8.30;99.90
25568;DHT22;13455;51.480;7.594;2023-11-21T04:04:34;8.40;99.90
25568;DHT22;13455;51.480;7.594;2023-11-21T04:07:00;8.30;99.90
25568;DHT22;13455;51.480;7.594;2023-11-21T04:09:26;8.10;99.90
25568;DHT22;13455;51.480;7.594;2023-11-21T04:11:52;8.40;99.90
25568;DHT22;13455;51.480;7.594;2023-11-21T04:14:18;8.40;99.90
25568;DHT22;13455;51.480;7.594;2023-11-21T04:16:44;8.50;99.90
25568;DHT22;13455;51.480;7.594;2023-11-21T04:19:09;8.40;99.90
25568;DHT22;13455;51.480;7.594;2023-11-21T04:21:39;8.50;99.90
25568;DHT22;13455;51.480;7.594;2023-11-21T04:24:05;8.40;99.90
25568;DHT22;13455;51.480;7.594;2023-11-21T04:26:31;8.40;99.90
25568;DHT22;13455;51.480;7.594;2023-11-21T04:28:57;8.40;99.90
25568;DHT22;13455;51.480;7.594;2023-11-21T04:31:22;8.60;99.90
25568;DHT22;13455;51.480;7.594;2023-11-21T04:33:48;8.50;99.90
25568;DHT22;13455;51.480;7.594;2023-11-21T04:36:14;8.50;99.90
25568;DHT22;13455;51.480;7.594;2023-11-21T04:38:39;8.70;99.90
25568;DHT22;13455;51.480;7.594;2023-11-21T04:41:06;8.50;99.90
25568;DHT22;13455;51.480;7.594;2023-11-21T04:43:31;8.50;99.90
25568;DHT22;13455;51.480;7.594;2023-11-21T04:45:57;8.50;99.90
25568;DHT22;13455;51.480;7.594;2023-11-21T04:48:23;8.50;99.90
25568;DHT22;13455;51.480;7.594;2023-11-21T04:50:48;8.50;99.90
25568;DHT22;13455;51.480;7.594;2023-11-21T04:53:14;8.80;99.90
25568;DHT22;13455;51.480;7.594;2023-11-21T04:55:40;8.50;99.90
25568;DHT22;13455;51.480;7.594;2023-11-21T04:58:07;8.50;99.90
25568;DHT22;13455;51.480;7.594;2023-11-21T05:00:33;8.50;99.90
25568;DHT22;13455;51.480;7.594;2023-11-21T05:02:59;8.50;99.90
25568;DHT22;13455;51.480;7.594;2023-11-21T05:05:26;8.80;99.90
25568;DHT22;13455;51.480;7.594;2023-11-21T05:07:52;8.50;99.90
25568;DHT22;13455;51.480;7.594;2023-11-21T05:10:19;8.60;99.90
25568;DHT22;13455;51.480;7.594;2023-11-21T05:12:45;8.50;99.90
25568;DHT22;13455;51.480;7.594;2023-11-21T05:15:14;8.50;99.90
25568;DHT22;13455;51.480;7.594;2023-11-21T05:17:40;8.50;99.90
25568;DHT22;13455;51.480;7.594;2023-11-21T05:20:13;8.60;99.90
25568;DHT22;13455;51.480;7.594;2023-11-21T05:22:40;8.50;99.90
25568;DHT22;13455;51.480;7.594;2023-11-21T05:25:07;8.20;99.90
25568;DHT22;13455;51.480;7.594;2023-11-21T05:27:34;8.60;99.90
25568;DHT22;13455;51.480;7.594;2023-11-21T05:30:01;8.50;99.90
25568;DHT22;13455;51.480;7.594;2023-11-21T05:32:28;8.60;99.90
25568;DHT22;13455;51.480;7.594;2023-11-21T05:34:53;8.40;99.90
25568;DHT22;13455;51.480;7.594;2023-11-21T05:37:19;8.40;99.90
25568;DHT22;13455;51.480;7.594;2023-11-21T05:39:45;8.50;99.90
25568;DHT22;13455;51.480;7.594;2023-11-21T05:42:10;8.40;99.90
25568;DHT22;13455;51.480;7.594;2023-11-21T05:44:37;8.60;99.90
25568;DHT22;13455;51.480;7.594;2023-11-21T05:47:03;8.50;99.90
25568;DHT22;13455;51.480;7.594;2023-11-21T05:49:29;8.40;99.90
25568;DHT22;13455;51.480;7.594;2023-11-21T05:51:55;8.40;99.90
25568;DHT22;13455;51.480;7.594;2023-11-21T05:54:21;8.40;99.90
25568;DHT22;13455;51.480;7.594;2023-11-21T05:56:47;8.40;99.90
25568;DHT22;13455;51.480;7.594;2023-11-21T05:59:12;8.40;99.90
25568;DHT22;13455;51.480;7.594;2023-11-21T06:01:38;8.40;99.90
25568;DHT22;13455;51.480;7.594;2023-11-21T06:04:05;8.60;99.90
25568;DHT22;13455;51.480;7.594;2023-11-21T06:06:30;8.30;99.90
25568;DHT22;13455;51.480;7.594;2023-11-21T06:08:57;8.40;99.90
25568;DHT22;13455;51.480;7.594;2023-11-21T06:11:22;8.50;99.90
25568;DHT22;13455;51.480;7.594;2023-11-21T06:13:48;8.80;99.90
25568;DHT22;13455;51.480;7.594;2023-11-21T06:16:15;8.40;99.90
25568;DHT22;13455;51.480;7.594;2023-11-21T06:18:43;8.60;99.90
25568;DHT22;13455;51.480;7.594;2023-11-21T06:21:12;8.50;99.90
25568;DHT22;13455;51.480;7.594;2023-11-21T06:23:38;8.30;99.90
25568;DHT22;13455;51.480;7.594;2023-11-21T06:26:05;8.40;99.90
25568;DHT22;13455;51.480;7.594;2023-11-21T06:28:31;8.40;99.90
25568;DHT22;13455;51.480;7.594;2023-11-21T06:30:57;8.50;99.90
25568;DHT22;13455;51.480;7.594;2023-11-21T06:33:31;8.50;99.90
25568;DHT22;13455;51.480;7.594;2023-11-21T06:35:56;8.50;99.90
25568;DHT22;13455;51.480;7.594;2023-11-21T06:38:22;8.40;99.90
25568;DHT22;13455;51.480;7.594;2023-11-21T06:40:48;8.50;99.90
25568;DHT22;13455;51.480;7.594;2023-11-21T06:43:13;8.40;99.90
25568;DHT22;13455;51.480;7.594;2023-11-21T06:45:39;8.30;99.90
25568;DHT22;13455;51.480;7.594;2023-11-21T06:48:05;8.20;99.90
25568;DHT22;13455;51.480;7.594;2023-11-21T06:50:31;8.40;99.90
25568;DHT22;13455;51.480;7.594;2023-11-21T06:52:56;8.40;99.90
25568;DHT22;13455;51.480;7.594;2023-11-21T06:55:22;8.50;99.90
25568;DHT22;13455;51.480;7.594;2023-11-21T06:57:47;8.40;99.90
25568;DHT22;13455;51.480;7.594;2023-11-21T07:00:15;8.70;99.90
25568;DHT22;13455;51.480;7.594;2023-11-21T07:02:43;8.40;99.90
25568;DHT22;13455;51.480;7.594;2023-11-21T07:05:08;8.40;99.90
25568;DHT22;13455;51.480;7.594;2023-11-21T07:07:34;8.70;99.90
25568;DHT22;13455;51.480;7.594;2023-11-21T07:10:04;8.40;99.90
25568;DHT22;13455;51.480;7.594;2023-11-21T07:12:31;8.40;99.90
25568;DHT22;13455;51.480;7.594;2023-11-21T07:14:57;8.40;99.90
25568;DHT22;13455;51.480;7.594;2023-11-21T07:17:23;8.50;99.90
25568;DHT22;13455;51.480;7.594;2023-11-21T07:19:49;8.90;99.90
25568;DHT22;13455;51.480;7.594;2023-11-21T07:22:15;8.70;99.90
25568;DHT22;13455;51.480;7.594;2023-11-21T07:24:48;9.00;99.90
25568;DHT22;13455;51.480;7.594;2023-11-21T07:27:15;8.50;99.90
25568;DHT22;13455;51.480;7.594;2023-11-21T07:29:41;8.70;99.90
25568;DHT22;13455;51.480;7.594;2023-11-21T07:32:06;8.70;99.90
25568;DHT22;13455;51.480;7.594;2023-11-21T07:34:34;8.60;99.90
25568;DHT22;13455;51.480;7.594;2023-11-21T07:37:00;8.90;99.90
25568;DHT22;13455;51.480;7.594;2023-11-21T07:39:26;8.90;99.90
25568;DHT22;13455;51.480;7.594;2023-11-21T07:41:51;8.60;99.90
25568;DHT22;13455;51.480;7.594;2023-11-21T07:44:17;8.70;99.90
25568;DHT22;13455;51.480;7.594;2023-11-21T07:46:43;8.70;99.90
25568;DHT22;13455;51.480;7.594;2023-11-21T07:49:09;8.60;99.90
25568;DHT22;13455;51.480;7.594;2023-11-21T07:51:35;8.80;99.90
25568;DHT22;13455;51.480;7.594;2023-11-21T07:54:00;8.80;99.90
25568;DHT22;13455;51.480;7.594;2023-11-21T07:56:26;8.80;99.90
25568;DHT22;13455;51.480;7.594;2023-11-21T07:58:52;8.80;99.90
25568;DHT22;13455;51.480;7.594;2023-11-21T08:01:17;9.00;99.90
25568;DHT22;13455;51.480;7.594;2023-11-21T08:03:43;8.40;99.90
25568;DHT22;13455;51.480;7.594;2023-11-21T08:06:09;8.90;99.90
25568;DHT22;13455;51.480;7.594;2023-11-21T08:08:35;8.90;99.90
25568;DHT22;13455;51.480;7.594;2023-11-21T08:11:01;8.90;99.90
25568;DHT22;13455;51.480;7.594;2023-11-21T08:13:29;9.40;99.90
25568;DHT22;13455;51.480;7.594;2023-11-21T08:15:58;9.10;99.90
25568;DHT22;13455;51.480;7.594;2023-11-21T08:18:28;9.10;99.90
25568;DHT22;13455;51.480;7.594;2023-11-21T08:20:57;9.10;99.90
25568;DHT22;13455;51.480;7.594;2023-11-21T08:23:23;9.10;99.90
25568;DHT22;13455;51.480;7.594;2023-11-21T08:25:51;9.30;99.90
25568;DHT22;13455;51.480;7.594;2023-11-21T08:28:17;9.20;99.90
25568;DHT22;13455;51.480;7.594;2023-11-21T08:30:42;9.40;99.90
25568;DHT22;13455;51.480;7.594;2023-11-21T08:33:08;9.60;99.90
25568;DHT22;13455;51.480;7.594;2023-11-21T08:35:34;9.20;99.90
25568;DHT22;13455;51.480;7.594;2023-11-21T08:38:00;9.20;99.90
25568;DHT22;13455;51.480;7.594;2023-11-21T08:40:26;9.30;99.90
25568;DHT22;13455;51.480;7.594;2023-11-21T08:42:51;9.60;99.90
25568;DHT22;13455;51.480;7.594;2023-11-21T08:45:18;9.30;99.90
25568;DHT22;13455;51.480;7.594;2023-11-21T08:47:45;9.50;99.90
25568;DHT22;13455;51.480;7.594;2023-11-21T08:50:11;9.70;99.90
25568;DHT22;13455;51.480;7.594;2023-11-21T08:52:38;9.30;99.90
25568;DHT22;13455;51.480;7.594;2023-11-21T08:55:05;9.50;99.90
25568;DHT22;13455;51.480;7.594;2023-11-21T08:57:36;9.40;99.90
25568;DHT22;13455;51.480;7.594;2023-11-21T09:00:03;9.60;99.90
25568;DHT22;13455;51.480;7.594;2023-11-21T09:02:33;9.40;99.90
25568;DHT22;13455;51.480;7.594;2023-11-21T09:05:00;9.70;99.90
25568;DHT22;13455;51.480;7.594;2023-11-21T09:07:28;9.40;99.90
25568;DHT22;13455;51.480;7.594;2023-11-21T09:09:54;9.30;99.90
25568;DHT22;13455;51.480;7.594;2023-11-21T09:12:20;9.60;99.90
25568;DHT22;13455;51.480;7.594;2023-11-21T09:14:47;9.50;99.90
25568;DHT22;13455;51.480;7.594;2023-11-21T09:17:12;9.40;99.90
25568;DHT22;13455;51.480;7.594;2023-11-21T09:19:38;9.50;99.90
25568;DHT22;13455;51.480;7.594;2023-11-21T09:22:04;9.50;99.90
25568;DHT22;13455;51.480;7.594;2023-11-21T09:24:31;9.60;99.90
25568;DHT22;13455;51.480;7.594;2023-11-21T09:26:57;9.90;99.90
25568;DHT22;13455;51.480;7.594;2023-11-21T09:29:22;9.70;99.90
25568;DHT22;13455;51.480;7.594;2023-11-21T09:31:48;9.70;99.90
25568;DHT22;13455;51.480;7.594;2023-11-21T09:34:16;9.80;99.90
25568;DHT22;13455;51.480;7.594;2023-11-21T09:36:45;9.80;99.90
25568;DHT22;13455;51.480;7.594;2023-11-21T09:39:11;9.70;99.90
25568;DHT22;13455;51.480;7.594;2023-11-21T09:41:49;9.90;99.90
25568;DHT22;13455;51.480;7.594;2023-11-21T09:44:18;9.90;99.90
25568;DHT22;13455;51.480;7.594;2023-11-21T09:46:47;9.70;99.90
25568;DHT22;13455;51.480;7.594;2023-11-21T09:49:18;10.10;99.90
25568;DHT22;13455;51.480;7.594;2023-11-21T09:51:52;9.90;99.90
25568;DHT22;13455;51.480;7.594;2023-11-21T09:54:20;9.70;99.90
25568;DHT22;13455;51.480;7.594;2023-11-21T09:56:47;9.80;99.90
25568;DHT22;13455;51.480;7.594;2023-11-21T09:59:15;9.80;99.90
25568;DHT22;13455;51.480;7.594;2023-11-21T10:01:42;9.90;99.90
25568;DHT22;13455;51.480;7.594;2023-11-21T10:04:10;10.40;99.90
25568;DHT22;13455;51.480;7.594;2023-11-21T10:06:41;9.90;99.90
25568;DHT22;13455;51.480;7.594;2023-11-21T10:09:10;9.90;99.90
25568;DHT22;13455;51.480;7.594;2023-11-21T10:11:40;10.10;99.90
25568;DHT22;13455;51.480;7.594;2023-11-21T10:14:08;9.80;99.90
25568;DHT22;13455;51.480;7.594;2023-11-21T10:16:36;10.10;99.90
25568;DHT22;13455;51.480;7.594;2023-11-21T10:19:04;10.10;99.90
25568;DHT22;13455;51.480;7.594;2023-11-21T10:21:32;9.90;99.90
25568;DHT22;13455;51.480;7.594;2023-11-21T10:23:58;10.30;99.90
25568;DHT22;13455;51.480;7.594;2023-11-21T10:26:26;10.00;99.90
25568;DHT22;13455;51.480;7.594;2023-11-21T10:28:59;10.30;99.90
25568;DHT22;13455;51.480;7.594;2023-11-21T10:31:32;10.20;99.90
25568;DHT22;13455;51.480;7.594;2023-11-21T10:34:14;11.10;99.90
25568;DHT22;13455;51.480;7.594;2023-11-21T10:36:40;10.30;99.90
25568;DHT22;13455;51.480;7.594;2023-11-21T10:39:06;10.10;99.90
25568;DHT22;13455;51.480;7.594;2023-11-21T10:41:32;10.40;99.90
25568;DHT22;13455;51.480;7.594;2023-11-21T10:43:58;10.40;99.90
25568;DHT22;13455;51.480;7.594;2023-11-21T10:46:23;10.50;99.90
25568;DHT22;13455;51.480;7.594;2023-11-21T10:48:54;10.60;99.90
25568;DHT22;13455;51.480;7.594;2023-11-21T10:51:21;10.80;99.90
25568;DHT22;13455;51.480;7.594;2023-11-21T10:53:47;10.70;99.90
25568;DHT22;13455;51.480;7.594;2023-11-21T10:56:14;10.40;99.90
25568;DHT22;13455;51.480;7.594;2023-11-21T10:58:43;10.40;99.90
25568;DHT22;13455;51.480;7.594;2023-11-21T11:01:09;10.50;99.90
25568;DHT22;13455;51.480;7.594;2023-11-21T11:03:37;10.50;99.90
25568;DHT22;13455;51.480;7.594;2023-11-21T11:06:05;10.40;99.90
25568;DHT22;13455;51.480;7.594;2023-11-21T11:08:34;10.50;99.90
25568;DHT22;13455;51.480;7.594;2023-11-21T11:11:00;10.90;99.90
25568;DHT22;13455;51.480;7.594;2023-11-21T11:13:26;10.60;99.90
25568;DHT22;13455;51.480;7.594;2023-11-21T11:15:57;10.70;99.90
25568;DHT22;13455;51.480;7.594;2023-11-21T11:18:25;11.00;99.90
25568;DHT22;13455;51.480;7.594;2023-11-21T11:20:51;10.00;99.90
25568;DHT22;13455;51.480;7.594;2023-11-21T11:23:46;10.40;99.90
25568;DHT22;13455;51.480;7.594;2023-11-21T11:26:46;10.30;99.90
25568;DHT22;13455;51.480;7.594;2023-11-21T11:32:16;10.10;99.90
25568;DHT22;13455;51.480;7.594;2023-11-21T11:35:24;10.40;99.90
25568;DHT22;13455;51.480;7.594;2023-11-21T11:37:52;10.20;99.90
25568;DHT22;13455;51.480;7.594;2023-11-21T11:40:18;10.10;99.90
25568;DHT22;13455;51.480;7.594;2023-11-21T11:43:01;10.10;99.90
25568;DHT22;13455;51.480;7.594;2023-11-21T11:45:34;10.30;99.90
25568;DHT22;13455;51.480;7.594;2023-11-21T11:48:01;9.60;99.90
25568;DHT22;13455;51.480;7.594;2023-11-21T11:50:27;10.10;99.90
25568;DHT22;13455;51.480;7.594;2023-11-21T11:52:53;10.30;99.90
25568;DHT22;13455;51.480;7.594;2023-11-21T11:55:21;9.30;99.90
25568;DHT22;13455;51.480;7.594;2023-11-21T11:57:52;10.20;99.90
25568;DHT22;13455;51.480;7.594;2023-11-21T12:02:55;10.20;99.90
25568;DHT22;13455;51.480;7.594;2023-11-21T12:05:22;10.30;99.90
25568;DHT22;13455;51.480;7.594;2023-11-21T12:07:52;10.50;99.90
25568;DHT22;13455;51.480;7.594;2023-11-21T12:10:25;10.00;99.90
25568;DHT22;13455;51.480;7.594;2023-11-21T12:15:19;10.20;99.90
25568;DHT22;13455;51.480;7.594;2023-11-21T12:17:46;10.80;99.90
25568;DHT22;13455;51.480;7.594;2023-11-21T12:20:13;10.20;99.90
25568;DHT22;13455;51.480;7.594;2023-11-21T12:22:49;10.30;99.90
25568;DHT22;13455;51.480;7.594;2023-11-21T12:25:22;10.20;99.90
25568;DHT22;13455;51.480;7.594;2023-11-21T12:27:52;10.20;99.90
25568;DHT22;13455;51.480;7.594;2023-11-21T12:30:22;10.10;99.90
25568;DHT22;13455;51.480;7.594;2023-11-21T12:32:52;10.10;99.90
25568;DHT22;13455;51.480;7.594;2023-11-21T12:35:18;10.30;99.90
25568;DHT22;13455;51.480;7.594;2023-11-21T12:37:45;10.40;99.90
25568;DHT22;13455;51.480;7.594;2023-11-21T12:40:12;10.50;99.90
25568;DHT22;13455;51.480;7.594;2023-11-21T12:47:43;9.80;99.90
25568;DHT22;13455;51.480;7.594;2023-11-21T12:50:10;9.70;99.90
25568;DHT22;13455;51.480;7.594;2023-11-21T12:52:50;10.10;99.90
25568;DHT22;13455;51.480;7.594;2023-11-21T12:55:20;9.80;99.90
25568;DHT22;13455;51.480;7.594;2023-11-21T12:57:51;10.00;99.90
25568;DHT22;13455;51.480;7.594;2023-11-21T13:00:18;9.70;99.90
25568;DHT22;13455;51.480;7.594;2023-11-21T13:02:57;9.70;99.90
25568;DHT22;13455;51.480;7.594;2023-11-21T13:05:31;9.90;99.90
25568;DHT22;13455;51.480;7.594;2023-11-21T13:08:00;9.90;99.90
25568;DHT22;13455;51.480;7.594;2023-11-21T13:10:31;10.10;99.90
25568;DHT22;13455;51.480;7.594;2023-11-21T13:12:58;10.00;99.90
25568;DHT22;13455;51.480;7.594;2023-11-21T13:15:27;9.60;99.90
25568;DHT22;13455;51.480;7.594;2023-11-21T13:17:53;9.60;99.90
25568;DHT22;13455;51.480;7.594;2023-11-21T13:20:20;9.90;99.90
25568;DHT22;13455;51.480;7.594;2023-11-21T13:22:53;10.00;99.90
25568;DHT22;13455;51.480;7.594;2023-11-21T13:25:29;9.50;99.90
25568;DHT22;13455;51.480;7.594;2023-11-21T13:27:57;9.70;99.90
25568;DHT22;13455;51.480;7.594;2023-11-21T13:30:24;9.40;99.90
25568;DHT22;13455;51.480;7.594;2023-11-21T13:33:02;9.70;99.90
25568;DHT22;13455;51.480;7.594;2023-11-21T13:35:32;9.50;99.90
25568;DHT22;13455;51.480;7.594;2023-11-21T13:38:26;9.30;99.90
25568;DHT22;13455;51.480;7.594;2023-11-21T13:40:57;9.30;99.90
25568;DHT22;13455;51.480;7.594;2023-11-21T13:43:24;9.20;99.90
25568;DHT22;13455;51.480;7.594;2023-11-21T13:45:53;9.30;99.90
25568;DHT22;13455;51.480;7.594;2023-11-21T13:48:40;9.40;99.90
25568;DHT22;13455;51.480;7.594;2023-11-21T13:51:09;9.50;99.90
25568;DHT22;13455;51.480;7.594;2023-11-21T13:53:47;9.20;99.90
25568;DHT22;13455;51.480;7.594;2023-11-21T13:56:15;9.30;99.90
25568;DHT22;13455;51.480;7.594;2023-11-21T13:58:49;9.20;99.90
25568;DHT22;13455;51.480;7.594;2023-11-21T14:01:18;9.40;99.90
25568;DHT22;13455;51.480;7.594;2023-11-21T14:03:57;9.30;99.90
25568;DHT22;13455;51.480;7.594;2023-11-21T14:06:28;9.00;99.90
25568;DHT22;13455;51.480;7.594;2023-11-21T14:09:00;9.10;99.90
25568;DHT22;13455;51.480;7.594;2023-11-21T14:11:31;9.30;99.90
25568;DHT22;13455;51.480;7.594;2023-11-21T14:13:56;9.40;99.90
25568;DHT22;13455;51.480;7.594;2023-11-21T14:16:24;9.60;99.90
25568;DHT22;13455;51.480;7.594;2023-11-21T14:18:50;9.30;99.90
25568;DHT22;13455;51.480;7.594;2023-11-21T14:21:21;9.20;99.90
25568;DHT22;13455;51.480;7.594;2023-11-21T14:23:47;9.30;99.90
25568;DHT22;13455;51.480;7.594;2023-11-21T14:26:14;9.10;99.90
25568;DHT22;13455;51.480;7.594;2023-11-21T14:28:40;9.10;99.90
25568;DHT22;13455;51.480;7.594;2023-11-21T14:31:07;9.00;99.90
25568;DHT22;13455;51.480;7.594;2023-11-21T14:33:33;9.10;99.90
25568;DHT22;13455;51.480;7.594;2023-11-21T14:35:59;8.90;99.90
25568;DHT22;13455;51.480;7.594;2023-11-21T14:38:24;9.00;99.90
25568;DHT22;13455;51.480;7.594;2023-11-21T14:40:50;9.70;99.90
25568;DHT22;13455;51.480;7.594;2023-11-21T14:43:16;9.00;99.90
25568;DHT22;13455;51.480;7.594;2023-11-21T14:45:43;9.20;99.90
25568;DHT22;13455;51.480;7.594;2023-11-21T14:48:09;9.00;99.90
25568;DHT22;13455;51.480;7.594;2023-11-21T14:50:42;8.90;99.90
25568;DHT22;13455;51.480;7.594;2023-11-21T14:53:15;8.90;99.90
25568;DHT22;13455;51.480;7.594;2023-11-21T14:55:41;8.70;99.90
25568;DHT22;13455;51.480;7.594;2023-11-21T14:58:19;8.90;99.90
25568;DHT22;13455;51.480;7.594;2023-11-21T15:01:00;8.80;99.90
25568;DHT22;13455;51.480;7.594;2023-11-21T15:03:27;9.00;99.90
25568;DHT22;13455;51.480;7.594;2023-11-21T15:06:00;8.70;99.90
25568;DHT22;13455;51.480;7.594;2023-11-21T15:08:44;9.00;99.90
25568;DHT22;13455;51.480;7.594;2023-11-21T15:11:10;8.80;99.90
25568;DHT22;13455;51.480;7.594;2023-11-21T15:13:40;8.70;99.90
25568;DHT22;13455;51.480;7.594;2023-11-21T15:16:07;8.70;99.90
25568;DHT22;13455;51.480;7.594;2023-11-21T15:18:34;8.50;99.90
25568;DHT22;13455;51.480;7.594;2023-11-21T15:21:01;8.60;99.90
25568;DHT22;13455;51.480;7.594;2023-11-21T15:23:28;8.60;99.90
25568;DHT22;13455;51.480;7.594;2023-11-21T15:25:56;8.40;99.90
25568;DHT22;13455;51.480;7.594;2023-11-21T15:28:21;8.30;99.90
25568;DHT22;13455;51.480;7.594;2023-11-21T15:30:47;8.40;99.90
25568;DHT22;13455;51.480;7.594;2023-11-21T15:33:15;8.30;99.90
25568;DHT22;13455;51.480;7.594;2023-11-21T15:35:40;8.40;99.90
25568;DHT22;13455;51.480;7.594;2023-11-21T15:38:07;8.10;99.90
25568;DHT22;13455;51.480;7.594;2023-11-21T15:40:33;8.10;99.90
25568;DHT22;13455;51.480;7.594;2023-11-21T15:42:59;8.20;99.90
25568;DHT22;13455;51.480;7.594;2023-11-21T15:45:25;8.20;99.90
25568;DHT22;13455;51.480;7.594;2023-11-21T15:47:51;8.30;99.90
25568;DHT22;13455;51.480;7.594;2023-11-21T15:50:18;8.10;99.90
25568;DHT22;13455;51.480;7.594;2023-11-21T15:52:44;8.00;99.90
25568;DHT22;13455;51.480;7.594;2023-11-21T15:55:10;8.00;99.90
25568;DHT22;13455;51.480;7.594;2023-11-21T15:57:36;8.00;99.90
25568;DHT22;13455;51.480;7.594;2023-11-21T16:00:02;7.90;99.90